sensor_id;sensor_type;location;lat;lon;timestamp;temperature;humidity
42907;DHT22;28552;51.146;6.576;2023-07-29T00:00:43;18.60;99.90
42907;DHT22;28552;51.146;6.576;2023-07-29T00:03:44;18.50;99.90
42907;DHT22;28552;51.146;6.576;2023-07-29T00:06:44;18.50;99.90
42907;DHT22;28552;51.146;6.576;2023-07-29T00:09:45;18.50;99.90
42907;DHT22;28552;51.146;6.576;2023-07-29T00:12:46;18.50;99.90
42907;DHT22;28552;51.146;6.576;2023-07-29T00:15:46;18.50;99.90
42907;DHT22;28552;51.146;6.576;2023-07-29T00:18:47;18.50;99.90
42907;DHT22;28552;51.146;6.576;2023-07-29T00:21:47;18.40;99.90
42907;DHT22;28552;51.146;6.576;2023-07-29T00:24:52;18.40;99.90
42907;DHT22;28552;51.146;6.576;2023-07-29T00:27:56;18.30;99.90
42907;DHT22;28552;51.146;6.576;2023-07-29T00:30:56;18.30;99.90
42907;DHT22;28552;51.146;6.576;2023-07-29T00:33:57;18.30;99.90
42907;DHT22;28552;51.146;6.576;2023-07-29T00:36:58;18.30;99.90
42907;DHT22;28552;51.146;6.576;2023-07-29T00:39:59;18.30;99.90
42907;DHT22;28552;51.146;6.576;2023-07-29T00:42:59;18.30;99.90
42907;DHT22;28552;51.146;6.576;2023-07-29T00:46:00;18.30;99.90
42907;DHT22;28552;51.146;6.576;2023-07-29T00:49:01;18.30;99.90
42907;DHT22;28552;51.146;6.576;2023-07-29T00:52:02;18.20;99.90
42907;DHT22;28552;51.146;6.576;2023-07-29T00:55:04;18.30;99.90
42907;DHT22;28552;51.146;6.576;2023-07-29T00:58:05;18.30;99.90
42907;DHT22;28552;51.146;6.576;2023-07-29T01:01:05;18.30;99.90
42907;DHT22;28552;51.146;6.576;2023-07-29T01:04:06;18.30;99.90
42907;DHT22;28552;51.146;6.576;2023-07-29T01:07:19;18.30;99.90
42907;DHT22;28552;51.146;6.576;2023-07-29T01:10:31;18.30;99.90
42907;DHT22;28552;51.146;6.576;2023-07-29T01:13:44;18.30;99.90
42907;DHT22;28552;51.146;6.576;2023-07-29T01:16:52;18.30;99.90
42907;DHT22;28552;51.146;6.576;2023-07-29T01:23:06;18.40;99.90
42907;DHT22;28552;51.146;6.576;2023-07-29T01:26:06;18.30;99.90
42907;DHT22;28552;51.146;6.576;2023-07-29T01:29:07;18.30;99.90
42907;DHT22;28552;51.146;6.576;2023-07-29T01:32:13;18.30;99.90
42907;DHT22;28552;51.146;6.576;2023-07-29T01:35:15;18.30;99.90
42907;DHT22;28552;51.146;6.576;2023-07-29T01:38:20;18.30;99.90
42907;DHT22;28552;51.146;6.576;2023-07-29T01:41:24;18.30;99.90
42907;DHT22;28552;51.146;6.576;2023-07-29T01:44:25;18.30;99.90
42907;DHT22;28552;51.146;6.576;2023-07-29T01:47:26;18.30;99.90
42907;DHT22;28552;51.146;6.576;2023-07-29T01:50:27;18.40;99.90
42907;DHT22;28552;51.146;6.576;2023-07-29T01:53:27;18.40;99.90
42907;DHT22;28552;51.146;6.576;2023-07-29T01:56:28;18.40;99.90
42907;DHT22;28552;51.146;6.576;2023-07-29T01:59:28;18.40;99.90
42907;DHT22;28552;51.146;6.576;2023-07-29T02:02:29;18.50;99.90
42907;DHT22;28552;51.146;6.576;2023-07-29T02:05:29;18.40;99.90
42907;DHT22;28552;51.146;6.576;2023-07-29T02:08:30;18.40;99.90
42907;DHT22;28552;51.146;6.576;2023-07-29T02:11:31;18.40;99.90
42907;DHT22;28552;51.146;6.576;2023-07-29T02:14:31;18.40;99.90
42907;DHT22;28552;51.146;6.576;2023-07-29T02:17:32;18.40;99.90
42907;DHT22;28552;51.146;6.576;2023-07-29T02:20:32;18.40;99.90
42907;DHT22;28552;51.146;6.576;2023-07-29T02:23:33;18.40;99.90
42907;DHT22;28552;51.146;6.576;2023-07-29T02:26:34;18.40;99.90
42907;DHT22;28552;51.146;6.576;2023-07-29T02:29:34;18.40;99.90
42907;DHT22;28552;51.146;6.576;2023-07-29T02:32:35;18.40;99.90
42907;DHT22;28552;51.146;6.576;2023-07-29T02:35:35;18.40;99.90
42907;DHT22;28552;51.146;6.576;2023-07-29T02:38:36;18.40;99.90
42907;DHT22;28552;51.146;6.576;2023-07-29T02:41:37;18.40;99.90
42907;DHT22;28552;51.146;6.576;2023-07-29T02:44:38;18.40;99.90
42907;DHT22;28552;51.146;6.576;2023-07-29T02:47:39;18.40;99.90
42907;DHT22;28552;51.146;6.576;2023-07-29T02:50:39;18.40;99.90
42907;DHT22;28552;51.146;6.576;2023-07-29T02:53:40;18.40;99.90
42907;DHT22;28552;51.146;6.576;2023-07-29T02:56:40;18.50;99.90
42907;DHT22;28552;51.146;6.576;2023-07-29T02:59:41;18.50;99.90
42907;DHT22;28552;51.146;6.576;2023-07-29T03:02:41;18.50;99.90
42907;DHT22;28552;51.146;6.576;2023-07-29T03:05:42;18.50;99.90
42907;DHT22;28552;51.146;6.576;2023-07-29T03:08:42;18.50;99.90
42907;DHT22;28552;51.146;6.576;2023-07-29T03:11:43;18.50;99.90
42907;DHT22;28552;51.146;6.576;2023-07-29T03:14:47;18.50;99.90
42907;DHT22;28552;51.146;6.576;2023-07-29T03:17:48;18.50;99.90
42907;DHT22;28552;51.146;6.576;2023-07-29T03:20:49;18.50;99.90
42907;DHT22;28552;51.146;6.576;2023-07-29T03:23:49;18.50;99.90
42907;DHT22;28552;51.146;6.576;2023-07-29T03:26:50;18.60;99.90
42907;DHT22;28552;51.146;6.576;2023-07-29T03:29:50;18.50;99.90
42907;DHT22;28552;51.146;6.576;2023-07-29T03:32:51;18.50;99.90
42907;DHT22;28552;51.146;6.576;2023-07-29T03:35:52;18.60;99.90
42907;DHT22;28552;51.146;6.576;2023-07-29T03:38:54;18.50;99.90
42907;DHT22;28552;51.146;6.576;2023-07-29T03:41:54;18.50;99.90
42907;DHT22;28552;51.146;6.576;2023-07-29T03:44:55;18.50;99.90
42907;DHT22;28552;51.146;6.576;2023-07-29T03:47:55;18.50;99.90
42907;DHT22;28552;51.146;6.576;2023-07-29T03:50:56;18.50;99.90
42907;DHT22;28552;51.146;6.576;2023-07-29T03:53:57;18.50;99.90
42907;DHT22;28552;51.146;6.576;2023-07-29T03:56:57;18.50;99.90
42907;DHT22;28552;51.146;6.576;2023-07-29T03:59:58;18.40;99.90
42907;DHT22;28552;51.146;6.576;2023-07-29T04:02:58;18.40;99.90
42907;DHT22;28552;51.146;6.576;2023-07-29T04:05:59;18.40;99.90
42907;DHT22;28552;51.146;6.576;2023-07-29T04:08:59;18.30;99.90
42907;DHT22;28552;51.146;6.576;2023-07-29T04:12:00;18.30;99.90
42907;DHT22;28552;51.146;6.576;2023-07-29T04:15:01;18.30;99.90
42907;DHT22;28552;51.146;6.576;2023-07-29T04:18:01;18.30;99.90
42907;DHT22;28552;51.146;6.576;2023-07-29T04:21:02;18.20;99.90
42907;DHT22;28552;51.146;6.576;2023-07-29T04:24:03;18.20;99.90
42907;DHT22;28552;51.146;6.576;2023-07-29T04:27:04;18.20;99.90
42907;DHT22;28552;51.146;6.576;2023-07-29T04:30:05;18.20;99.90
42907;DHT22;28552;51.146;6.576;2023-07-29T04:33:06;18.10;99.90
42907;DHT22;28552;51.146;6.576;2023-07-29T04:36:07;18.10;99.90
42907;DHT22;28552;51.146;6.576;2023-07-29T04:39:07;18.10;99.90
42907;DHT22;28552;51.146;6.576;2023-07-29T04:42:08;18.10;99.90
42907;DHT22;28552;51.146;6.576;2023-07-29T04:45:09;18.10;99.90
42907;DHT22;28552;51.146;6.576;2023-07-29T04:48:09;18.10;99.90
42907;DHT22;28552;51.146;6.576;2023-07-29T04:51:10;18.10;99.90
42907;DHT22;28552;51.146;6.576;2023-07-29T04:54:10;18.10;99.90
42907;DHT22;28552;51.146;6.576;2023-07-29T04:57:11;18.00;99.90
42907;DHT22;28552;51.146;6.576;2023-07-29T05:00:12;18.00;99.90
42907;DHT22;28552;51.146;6.576;2023-07-29T05:03:12;18.00;99.90
42907;DHT22;28552;51.146;6.576;2023-07-29T05:06:13;18.10;99.90
42907;DHT22;28552;51.146;6.576;2023-07-29T05:09:16;18.00;99.90
42907;DHT22;28552;51.146;6.576;2023-07-29T05:12:16;18.00;99.90
42907;DHT22;28552;51.146;6.576;2023-07-29T05:15:17;18.00;99.90
42907;DHT22;28552;51.146;6.576;2023-07-29T05:18:19;18.00;99.90
42907;DHT22;28552;51.146;6.576;2023-07-29T05:21:19;17.90;99.90
42907;DHT22;28552;51.146;6.576;2023-07-29T05:24:20;17.90;99.90
42907;DHT22;28552;51.146;6.576;2023-07-29T05:27:20;17.90;99.90
42907;DHT22;28552;51.146;6.576;2023-07-29T05:30:21;17.90;99.90
42907;DHT22;28552;51.146;6.576;2023-07-29T05:33:21;17.80;99.90
42907;DHT22;28552;51.146;6.576;2023-07-29T05:36:22;17.80;99.90
42907;DHT22;28552;51.146;6.576;2023-07-29T05:39:23;17.80;99.90
42907;DHT22;28552;51.146;6.576;2023-07-29T05:42:24;17.60;99.90
42907;DHT22;28552;51.146;6.576;2023-07-29T05:45:25;17.60;99.90
42907;DHT22;28552;51.146;6.576;2023-07-29T05:48:25;17.60;99.90
42907;DHT22;28552;51.146;6.576;2023-07-29T05:51:27;17.50;99.90
42907;DHT22;28552;51.146;6.576;2023-07-29T05:54:28;17.50;99.90
42907;DHT22;28552;51.146;6.576;2023-07-29T05:57:28;17.60;99.90
42907;DHT22;28552;51.146;6.576;2023-07-29T06:00:29;17.50;99.90
42907;DHT22;28552;51.146;6.576;2023-07-29T06:03:29;17.50;99.90
42907;DHT22;28552;51.146;6.576;2023-07-29T06:06:30;17.50;99.90
42907;DHT22;28552;51.146;6.576;2023-07-29T06:09:30;17.50;99.90
42907;DHT22;28552;51.146;6.576;2023-07-29T06:12:31;17.50;99.90
42907;DHT22;28552;51.146;6.576;2023-07-29T06:15:32;17.50;99.90
42907;DHT22;28552;51.146;6.576;2023-07-29T06:18:32;17.50;99.90
42907;DHT22;28552;51.146;6.576;2023-07-29T06:21:33;17.50;99.90
42907;DHT22;28552;51.146;6.576;2023-07-29T06:24:33;17.50;99.90
42907;DHT22;28552;51.146;6.576;2023-07-29T06:27:34;17.60;99.90
42907;DHT22;28552;51.146;6.576;2023-07-29T06:30:35;17.70;99.90
42907;DHT22;28552;51.146;6.576;2023-07-29T06:33:35;17.70;99.90
42907;DHT22;28552;51.146;6.576;2023-07-29T06:36:36;17.80;99.90
42907;DHT22;28552;51.146;6.576;2023-07-29T06:39:36;17.90;99.90
42907;DHT22;28552;51.146;6.576;2023-07-29T06:42:37;17.90;99.90
42907;DHT22;28552;51.146;6.576;2023-07-29T06:45:38;18.00;99.90
42907;DHT22;28552;51.146;6.576;2023-07-29T06:48:38;18.00;99.90
42907;DHT22;28552;51.146;6.576;2023-07-29T06:51:39;18.10;99.90
42907;DHT22;28552;51.146;6.576;2023-07-29T06:54:39;18.10;99.90
42907;DHT22;28552;51.146;6.576;2023-07-29T06:57:40;18.20;99.90
42907;DHT22;28552;51.146;6.576;2023-07-29T07:00:41;18.20;99.90
42907;DHT22;28552;51.146;6.576;2023-07-29T07:03:41;18.30;99.90
42907;DHT22;28552;51.146;6.576;2023-07-29T07:06:42;18.30;99.90
42907;DHT22;28552;51.146;6.576;2023-07-29T07:09:42;18.30;99.90
42907;DHT22;28552;51.146;6.576;2023-07-29T07:12:43;18.30;99.90
42907;DHT22;28552;51.146;6.576;2023-07-29T07:15:43;18.30;99.90
42907;DHT22;28552;51.146;6.576;2023-07-29T07:18:45;18.40;99.90
42907;DHT22;28552;51.146;6.576;2023-07-29T07:21:46;18.30;99.90
42907;DHT22;28552;51.146;6.576;2023-07-29T07:24:46;18.40;99.90
42907;DHT22;28552;51.146;6.576;2023-07-29T07:27:47;18.50;99.90
42907;DHT22;28552;51.146;6.576;2023-07-29T07:30:48;18.70;99.90
42907;DHT22;28552;51.146;6.576;2023-07-29T07:33:49;18.90;99.90
42907;DHT22;28552;51.146;6.576;2023-07-29T07:36:50;19.00;99.90
42907;DHT22;28552;51.146;6.576;2023-07-29T07:39:50;19.20;99.90
42907;DHT22;28552;51.146;6.576;2023-07-29T07:42:51;19.30;99.90
42907;DHT22;28552;51.146;6.576;2023-07-29T07:45:57;19.30;99.90
42907;DHT22;28552;51.146;6.576;2023-07-29T07:48:58;19.30;99.90
42907;DHT22;28552;51.146;6.576;2023-07-29T07:51:59;19.30;99.90
42907;DHT22;28552;51.146;6.576;2023-07-29T07:55:00;19.40;99.90
42907;DHT22;28552;51.146;6.576;2023-07-29T07:58:00;19.60;99.90
42907;DHT22;28552;51.146;6.576;2023-07-29T08:01:03;19.60;99.90
42907;DHT22;28552;51.146;6.576;2023-07-29T08:04:03;19.60;99.90
42907;DHT22;28552;51.146;6.576;2023-07-29T08:07:04;19.80;99.90
42907;DHT22;28552;51.146;6.576;2023-07-29T08:10:06;20.00;99.90
42907;DHT22;28552;51.146;6.576;2023-07-29T08:13:07;20.10;99.90
42907;DHT22;28552;51.146;6.576;2023-07-29T08:16:08;20.10;99.90
42907;DHT22;28552;51.146;6.576;2023-07-29T08:19:08;20.20;99.90
42907;DHT22;28552;51.146;6.576;2023-07-29T08:22:10;20.30;99.90
42907;DHT22;28552;51.146;6.576;2023-07-29T08:25:10;20.30;99.90
42907;DHT22;28552;51.146;6.576;2023-07-29T08:28:11;20.30;99.90
42907;DHT22;28552;51.146;6.576;2023-07-29T08:31:11;20.40;99.90
42907;DHT22;28552;51.146;6.576;2023-07-29T08:34:12;20.50;99.90
42907;DHT22;28552;51.146;6.576;2023-07-29T08:37:13;20.70;99.90
42907;DHT22;28552;51.146;6.576;2023-07-29T08:40:13;20.80;99.90
42907;DHT22;28552;51.146;6.576;2023-07-29T08:43:17;21.10;99.90
42907;DHT22;28552;51.146;6.576;2023-07-29T08:46:20;21.20;99.90
42907;DHT22;28552;51.146;6.576;2023-07-29T08:49:21;21.20;99.90
42907;DHT22;28552;51.146;6.576;2023-07-29T08:52:24;21.10;99.90
42907;DHT22;28552;51.146;6.576;2023-07-29T08:55:25;20.90;99.90
42907;DHT22;28552;51.146;6.576;2023-07-29T08:58:26;20.80;99.90
42907;DHT22;28552;51.146;6.576;2023-07-29T09:01:27;20.80;99.90
42907;DHT22;28552;51.146;6.576;2023-07-29T09:04:27;20.80;99.90
42907;DHT22;28552;51.146;6.576;2023-07-29T09:07:29;20.70;99.90
42907;DHT22;28552;51.146;6.576;2023-07-29T09:10:30;20.70;99.90
42907;DHT22;28552;51.146;6.576;2023-07-29T09:13:30;20.70;99.90
42907;DHT22;28552;51.146;6.576;2023-07-29T09:16:32;20.70;99.90
42907;DHT22;28552;51.146;6.576;2023-07-29T09:19:34;20.70;99.90
42907;DHT22;28552;51.146;6.576;2023-07-29T09:22:35;20.70;99.90
42907;DHT22;28552;51.146;6.576;2023-07-29T09:25:36;20.70;99.90
42907;DHT22;28552;51.146;6.576;2023-07-29T09:28:38;20.80;99.90
42907;DHT22;28552;51.146;6.576;2023-07-29T09:31:39;20.80;99.90
42907;DHT22;28552;51.146;6.576;2023-07-29T09:34:43;20.80;99.90
42907;DHT22;28552;51.146;6.576;2023-07-29T09:37:43;20.90;99.90
42907;DHT22;28552;51.146;6.576;2023-07-29T09:40:44;20.90;99.90
42907;DHT22;28552;51.146;6.576;2023-07-29T09:43:45;21.00;99.90
42907;DHT22;28552;51.146;6.576;2023-07-29T09:46:46;21.10;99.90
42907;DHT22;28552;51.146;6.576;2023-07-29T09:49:47;21.10;99.90
42907;DHT22;28552;51.146;6.576;2023-07-29T09:52:48;21.10;99.90
42907;DHT22;28552;51.146;6.576;2023-07-29T09:55:50;21.10;99.90
42907;DHT22;28552;51.146;6.576;2023-07-29T09:58:51;21.10;99.90
42907;DHT22;28552;51.146;6.576;2023-07-29T10:01:52;21.20;99.90
42907;DHT22;28552;51.146;6.576;2023-07-29T10:04:54;21.30;99.90
42907;DHT22;28552;51.146;6.576;2023-07-29T10:07:56;21.50;99.90
42907;DHT22;28552;51.146;6.576;2023-07-29T10:10:59;21.60;99.90
42907;DHT22;28552;51.146;6.576;2023-07-29T10:14:01;21.60;99.90
42907;DHT22;28552;51.146;6.576;2023-07-29T10:17:02;21.70;99.90
42907;DHT22;28552;51.146;6.576;2023-07-29T10:20:04;21.70;99.90
42907;DHT22;28552;51.146;6.576;2023-07-29T10:23:07;21.60;99.90
42907;DHT22;28552;51.146;6.576;2023-07-29T10:26:10;21.60;99.90
42907;DHT22;28552;51.146;6.576;2023-07-29T10:29:13;21.50;99.90
42907;DHT22;28552;51.146;6.576;2023-07-29T10:32:13;21.50;99.90
42907;DHT22;28552;51.146;6.576;2023-07-29T10:35:15;21.40;99.90
42907;DHT22;28552;51.146;6.576;2023-07-29T10:38:16;21.40;99.90
42907;DHT22;28552;51.146;6.576;2023-07-29T10:41:17;21.60;99.90
42907;DHT22;28552;51.146;6.576;2023-07-29T10:47:53;21.90;99.90
42907;DHT22;28552;51.146;6.576;2023-07-29T10:54:30;22.00;99.90
42907;DHT22;28552;51.146;6.576;2023-07-29T10:57:39;22.20;99.90
42907;DHT22;28552;51.146;6.576;2023-07-29T11:00:42;22.40;99.90
42907;DHT22;28552;51.146;6.576;2023-07-29T11:04:01;22.60;99.90
42907;DHT22;28552;51.146;6.576;2023-07-29T11:10:04;22.70;99.90
42907;DHT22;28552;51.146;6.576;2023-07-29T11:13:05;22.50;99.90
42907;DHT22;28552;51.146;6.576;2023-07-29T11:16:10;22.20;99.90
42907;DHT22;28552;51.146;6.576;2023-07-29T11:19:17;22.00;99.90
42907;DHT22;28552;51.146;6.576;2023-07-29T11:22:20;21.90;99.90
42907;DHT22;28552;51.146;6.576;2023-07-29T11:25:22;21.90;99.90
42907;DHT22;28552;51.146;6.576;2023-07-29T11:28:23;21.90;99.90
42907;DHT22;28552;51.146;6.576;2023-07-29T11:31:39;21.90;99.90
42907;DHT22;28552;51.146;6.576;2023-07-29T11:34:41;21.90;99.90
42907;DHT22;28552;51.146;6.576;2023-07-29T11:37:44;22.00;99.90
42907;DHT22;28552;51.146;6.576;2023-07-29T11:41:00;22.00;99.90
42907;DHT22;28552;51.146;6.576;2023-07-29T11:44:03;22.10;99.90
42907;DHT22;28552;51.146;6.576;2023-07-29T11:47:12;22.30;99.90
42907;DHT22;28552;51.146;6.576;2023-07-29T11:50:13;22.40;99.90
42907;DHT22;28552;51.146;6.576;2023-07-29T11:53:15;22.40;99.90
42907;DHT22;28552;51.146;6.576;2023-07-29T11:56:16;22.50;99.90
42907;DHT22;28552;51.146;6.576;2023-07-29T11:59:17;22.50;99.90
42907;DHT22;28552;51.146;6.576;2023-07-29T12:02:19;22.60;99.90
42907;DHT22;28552;51.146;6.576;2023-07-29T12:05:21;22.70;99.90
42907;DHT22;28552;51.146;6.576;2023-07-29T12:08:23;22.80;99.90
42907;DHT22;28552;51.146;6.576;2023-07-29T12:11:24;22.90;99.90
42907;DHT22;28552;51.146;6.576;2023-07-29T12:14:26;22.90;99.90
42907;DHT22;28552;51.146;6.576;2023-07-29T12:17:28;23.00;99.90
42907;DHT22;28552;51.146;6.576;2023-07-29T12:20:29;23.10;99.90
42907;DHT22;28552;51.146;6.576;2023-07-29T12:23:30;23.10;99.90
42907;DHT22;28552;51.146;6.576;2023-07-29T12:26:31;23.10;99.90
42907;DHT22;28552;51.146;6.576;2023-07-29T12:29:31;23.10;99.90
42907;DHT22;28552;51.146;6.576;2023-07-29T12:32:32;23.10;99.90
42907;DHT22;28552;51.146;6.576;2023-07-29T12:35:37;23.10;99.90
42907;DHT22;28552;51.146;6.576;2023-07-29T12:38:38;23.00;99.90
42907;DHT22;28552;51.146;6.576;2023-07-29T12:41:38;22.90;99.90
42907;DHT22;28552;51.146;6.576;2023-07-29T12:44:39;22.80;99.90
42907;DHT22;28552;51.146;6.576;2023-07-29T12:47:40;22.80;99.90
42907;DHT22;28552;51.146;6.576;2023-07-29T12:50:40;23.00;99.90
42907;DHT22;28552;51.146;6.576;2023-07-29T12:53:41;23.00;99.90
42907;DHT22;28552;51.146;6.576;2023-07-29T12:56:41;23.10;99.90
42907;DHT22;28552;51.146;6.576;2023-07-29T12:59:42;23.00;99.90
42907;DHT22;28552;51.146;6.576;2023-07-29T13:02:42;23.00;99.90
42907;DHT22;28552;51.146;6.576;2023-07-29T13:05:43;22.90;99.90
42907;DHT22;28552;51.146;6.576;2023-07-29T13:08:44;22.80;99.90
42907;DHT22;28552;51.146;6.576;2023-07-29T13:11:45;22.70;99.90
42907;DHT22;28552;51.146;6.576;2023-07-29T13:14:45;22.50;99.90
42907;DHT22;28552;51.146;6.576;2023-07-29T13:17:46;22.40;99.90
42907;DHT22;28552;51.146;6.576;2023-07-29T13:20:46;22.20;99.90
42907;DHT22;28552;51.146;6.576;2023-07-29T13:23:47;22.00;99.90
42907;DHT22;28552;51.146;6.576;2023-07-29T13:26:48;21.90;99.90
42907;DHT22;28552;51.146;6.576;2023-07-29T13:29:48;21.80;99.90
42907;DHT22;28552;51.146;6.576;2023-07-29T13:32:49;21.70;99.90
42907;DHT22;28552;51.146;6.576;2023-07-29T13:35:49;21.70;99.90
42907;DHT22;28552;51.146;6.576;2023-07-29T13:38:50;21.80;99.90
42907;DHT22;28552;51.146;6.576;2023-07-29T13:41:51;21.80;99.90
42907;DHT22;28552;51.146;6.576;2023-07-29T13:44:51;21.90;99.90
42907;DHT22;28552;51.146;6.576;2023-07-29T13:47:52;21.90;99.90
42907;DHT22;28552;51.146;6.576;2023-07-29T13:50:52;21.80;99.90
42907;DHT22;28552;51.146;6.576;2023-07-29T13:53:53;21.50;99.90
42907;DHT22;28552;51.146;6.576;2023-07-29T13:56:54;21.00;99.90
42907;DHT22;28552;51.146;6.576;2023-07-29T13:59:54;20.60;99.90
42907;DHT22;28552;51.146;6.576;2023-07-29T14:02:55;20.30;99.90
42907;DHT22;28552;51.146;6.576;2023-07-29T14:05:55;20.10;99.90
42907;DHT22;28552;51.146;6.576;2023-07-29T14:08:56;20.00;99.90
42907;DHT22;28552;51.146;6.576;2023-07-29T14:11:57;20.00;99.90
42907;DHT22;28552;51.146;6.576;2023-07-29T14:14:57;20.00;99.90
42907;DHT22;28552;51.146;6.576;2023-07-29T14:17:58;20.00;99.90
42907;DHT22;28552;51.146;6.576;2023-07-29T14:20:59;20.20;99.90
42907;DHT22;28552;51.146;6.576;2023-07-29T14:23:59;20.40;99.90
42907;DHT22;28552;51.146;6.576;2023-07-29T14:27:00;20.70;99.90
42907;DHT22;28552;51.146;6.576;2023-07-29T14:30:01;20.90;99.90
42907;DHT22;28552;51.146;6.576;2023-07-29T14:33:02;20.90;99.90
42907;DHT22;28552;51.146;6.576;2023-07-29T14:36:03;20.90;99.90
42907;DHT22;28552;51.146;6.576;2023-07-29T14:39:05;20.90;99.90
42907;DHT22;28552;51.146;6.576;2023-07-29T14:42:05;21.00;99.90
42907;DHT22;28552;51.146;6.576;2023-07-29T14:45:07;21.10;99.90
42907;DHT22;28552;51.146;6.576;2023-07-29T14:48:07;21.40;99.90
42907;DHT22;28552;51.146;6.576;2023-07-29T14:51:08;21.60;99.90
42907;DHT22;28552;51.146;6.576;2023-07-29T14:54:08;21.80;99.90
42907;DHT22;28552;51.146;6.576;2023-07-29T14:57:10;22.00;99.90
42907;DHT22;28552;51.146;6.576;2023-07-29T15:00:11;22.20;99.90
42907;DHT22;28552;51.146;6.576;2023-07-29T15:03:11;22.40;99.90
42907;DHT22;28552;51.146;6.576;2023-07-29T15:06:12;22.40;99.90
42907;DHT22;28552;51.146;6.576;2023-07-29T15:09:13;22.50;99.90
42907;DHT22;28552;51.146;6.576;2023-07-29T15:12:13;22.50;99.90
42907;DHT22;28552;51.146;6.576;2023-07-29T15:15:14;22.40;99.90
42907;DHT22;28552;51.146;6.576;2023-07-29T15:18:14;22.40;99.90
42907;DHT22;28552;51.146;6.576;2023-07-29T15:21:15;22.60;99.90
42907;DHT22;28552;51.146;6.576;2023-07-29T15:24:15;22.60;99.90
42907;DHT22;28552;51.146;6.576;2023-07-29T15:27:16;22.70;99.90
42907;DHT22;28552;51.146;6.576;2023-07-29T15:30:16;22.70;99.90
42907;DHT22;28552;51.146;6.576;2023-07-29T15:33:17;22.90;99.90
42907;DHT22;28552;51.146;6.576;2023-07-29T15:36:17;23.00;99.90
42907;DHT22;28552;51.146;6.576;2023-07-29T15:39:18;23.10;99.90
42907;DHT22;28552;51.146;6.576;2023-07-29T15:42:18;23.20;99.90
42907;DHT22;28552;51.146;6.576;2023-07-29T15:45:19;23.30;99.90
42907;DHT22;28552;51.146;6.576;2023-07-29T15:48:20;23.40;99.90
42907;DHT22;28552;51.146;6.576;2023-07-29T15:51:20;23.50;99.90
42907;DHT22;28552;51.146;6.576;2023-07-29T15:54:21;23.50;99.90
42907;DHT22;28552;51.146;6.576;2023-07-29T15:57:21;23.50;99.90
42907;DHT22;28552;51.146;6.576;2023-07-29T16:00:22;23.40;99.90
42907;DHT22;28552;51.146;6.576;2023-07-29T16:03:22;23.30;99.90
42907;DHT22;28552;51.146;6.576;2023-07-29T16:06:24;23.10;99.90
42907;DHT22;28552;51.146;6.576;2023-07-29T16:09:25;23.20;99.90
42907;DHT22;28552;51.146;6.576;2023-07-29T16:12:26;23.30;99.90
42907;DHT22;28552;51.146;6.576;2023-07-29T16:15:27;23.40;99.90
42907;DHT22;28552;51.146;6.576;2023-07-29T16:18:27;23.60;99.90
42907;DHT22;28552;51.146;6.576;2023-07-29T16:21:28;23.60;99.90
42907;DHT22;28552;51.146;6.576;2023-07-29T16:24:28;23.70;99.90
42907;DHT22;28552;51.146;6.576;2023-07-29T16:27:30;23.70;99.90
42907;DHT22;28552;51.146;6.576;2023-07-29T16:30:31;23.70;99.90
42907;DHT22;28552;51.146;6.576;2023-07-29T16:33:32;23.70;99.90
42907;DHT22;28552;51.146;6.576;2023-07-29T16:36:32;23.70;99.90
42907;DHT22;28552;51.146;6.576;2023-07-29T16:39:34;23.50;99.90
42907;DHT22;28552;51.146;6.576;2023-07-29T16:42:34;23.30;99.90
42907;DHT22;28552;51.146;6.576;2023-07-29T16:45:35;23.00;99.90
42907;DHT22;28552;51.146;6.576;2023-07-29T16:48:35;22.90;99.90
42907;DHT22;28552;51.146;6.576;2023-07-29T16:51:36;23.00;99.90
42907;DHT22;28552;51.146;6.576;2023-07-29T16:54:36;23.10;99.90
42907;DHT22;28552;51.146;6.576;2023-07-29T16:57:38;23.40;99.90
42907;DHT22;28552;51.146;6.576;2023-07-29T17:00:39;23.50;99.90
42907;DHT22;28552;51.146;6.576;2023-07-29T17:03:39;23.60;99.90
42907;DHT22;28552;51.146;6.576;2023-07-29T17:06:40;23.60;99.90
42907;DHT22;28552;51.146;6.576;2023-07-29T17:09:40;23.50;99.90
42907;DHT22;28552;51.146;6.576;2023-07-29T17:12:41;23.60;99.90
42907;DHT22;28552;51.146;6.576;2023-07-29T17:15:41;23.60;99.90
42907;DHT22;28552;51.146;6.576;2023-07-29T17:18:42;23.50;99.90
42907;DHT22;28552;51.146;6.576;2023-07-29T17:21:43;23.30;99.90
42907;DHT22;28552;51.146;6.576;2023-07-29T17:24:43;23.20;99.90
42907;DHT22;28552;51.146;6.576;2023-07-29T17:27:44;22.90;99.90
42907;DHT22;28552;51.146;6.576;2023-07-29T17:30:48;22.70;99.90
42907;DHT22;28552;51.146;6.576;2023-07-29T17:33:48;22.50;99.90
42907;DHT22;28552;51.146;6.576;2023-07-29T17:36:49;22.40;99.90
42907;DHT22;28552;51.146;6.576;2023-07-29T17:39:52;22.50;99.90
42907;DHT22;28552;51.146;6.576;2023-07-29T17:42:53;22.50;99.90
42907;DHT22;28552;51.146;6.576;2023-07-29T17:45:54;22.60;99.90
42907;DHT22;28552;51.146;6.576;2023-07-29T17:48:55;22.50;99.90
42907;DHT22;28552;51.146;6.576;2023-07-29T17:51:55;22.40;99.90
42907;DHT22;28552;51.146;6.576;2023-07-29T17:54:56;22.30;99.90
42907;DHT22;28552;51.146;6.576;2023-07-29T17:57:56;22.20;99.90
42907;DHT22;28552;51.146;6.576;2023-07-29T18:00:58;22.10;99.90
42907;DHT22;28552;51.146;6.576;2023-07-29T18:03:59;22.00;99.90
42907;DHT22;28552;51.146;6.576;2023-07-29T18:06:59;22.00;99.90
42907;DHT22;28552;51.146;6.576;2023-07-29T18:10:00;21.90;99.90
42907;DHT22;28552;51.146;6.576;2023-07-29T18:13:00;21.90;99.90
42907;DHT22;28552;51.146;6.576;2023-07-29T18:16:01;21.90;99.90
42907;DHT22;28552;51.146;6.576;2023-07-29T18:19:02;21.80;99.90
42907;DHT22;28552;51.146;6.576;2023-07-29T18:22:03;21.70;99.90
42907;DHT22;28552;51.146;6.576;2023-07-29T18:25:03;21.50;99.90
42907;DHT22;28552;51.146;6.576;2023-07-29T18:28:04;21.40;99.90
42907;DHT22;28552;51.146;6.576;2023-07-29T18:31:04;21.30;99.90
42907;DHT22;28552;51.146;6.576;2023-07-29T18:34:05;21.20;99.90
42907;DHT22;28552;51.146;6.576;2023-07-29T18:37:06;21.10;99.90
42907;DHT22;28552;51.146;6.576;2023-07-29T18:40:09;20.90;99.90
42907;DHT22;28552;51.146;6.576;2023-07-29T18:43:09;20.80;99.90
42907;DHT22;28552;51.146;6.576;2023-07-29T18:46:10;20.70;99.90
42907;DHT22;28552;51.146;6.576;2023-07-29T18:49:11;20.70;99.90
42907;DHT22;28552;51.146;6.576;2023-07-29T18:52:11;20.70;99.90
42907;DHT22;28552;51.146;6.576;2023-07-29T18:55:12;20.60;99.90
42907;DHT22;28552;51.146;6.576;2023-07-29T18:58:12;20.50;99.90
42907;DHT22;28552;51.146;6.576;2023-07-29T19:01:13;20.40;99.90
42907;DHT22;28552;51.146;6.576;2023-07-29T19:04:14;20.40;99.90
42907;DHT22;28552;51.146;6.576;2023-07-29T19:07:14;20.50;99.90
42907;DHT22;28552;51.146;6.576;2023-07-29T19:10:15;20.40;99.90
42907;DHT22;28552;51.146;6.576;2023-07-29T19:13:16;20.40;99.90
42907;DHT22;28552;51.146;6.576;2023-07-29T19:16:16;20.40;99.90